Time;durP1;ratioP1;P1;durP2;ratioP2;P2;SDS_P1;SDS_P2;PMS_P1;PMS_P2;Temp;Humidity;BMP_temperature;BMP_pressure;BME280_temperature;BME280_humidity;BME280_pressure;Samples;Min_cycle;Max_cycle;Signal;HPM_P1;HPM_P2
2022/05/30 00:00:16;;;;;;;5.28;2.70;;;6.20;99.90;;;;;;4831544;29;20076;-80
2022/05/30 00:03:07;;;;;;;8.43;2.53;;;6.20;99.90;;;;;;4844821;29;20129;-80
2022/05/30 00:06:08;;;;;;;6.03;2.60;;;6.30;99.90;;;;;;4831324;29;20461;-79
2022/05/30 00:08:58;;;;;;;6.57;2.50;;;6.10;99.90;;;;;;4846389;29;20053;-79
2022/05/30 00:11:39;;;;;;;5.75;2.40;;;6.20;99.90;;;;;;4860034;29;20042;-80
2022/05/30 00:14:28;;;;;;;7.70;2.70;;;6.10;99.90;;;;;;4830546;29;20409;-79
2022/05/30 00:17:01;;;;;;;7.72;2.75;;;6.20;99.90;;;;;;4837910;29;20048;-79
2022/05/30 00:19:37;;;;;;;7.55;2.70;;;6.10;99.90;;;;;;4823346;29;20475;-80
2022/05/30 00:22:32;;;;;;;7.57;3.03;;;6.20;99.90;;;;;;4830309;29;20037;-80
2022/05/30 00:25:14;;;;;;;4.93;2.03;;;6.10;99.90;;;;;;4845891;29;20045;-79
2022/05/30 00:28:18;;;;;;;9.23;3.08;;;6.10;99.90;;;;;;4860342;29;20128;-79
2022/05/30 00:30:53;;;;;;;6.28;2.40;;;6.10;99.90;;;;;;4811144;29;20110;-79
2022/05/30 00:33:35;;;;;;;4.80;2.55;;;6.10;99.90;;;;;;4818488;29;20042;-79
2022/05/30 00:36:29;;;;;;;;;;;;;;;;;;;;;
2022/05/30 00:39:32;;;;;;;6.85;2.78;;;6.10;99.90;;;;;;4806506;29;20454;-79
2022/05/30 00:42:19;;;;;;;6.18;3.20;;;6.10;99.90;;;;;;4844061;29;20132;-79
2022/05/30 00:44:54;;;;;;;5.88;3.00;;;6.00;99.90;;;;;;4821848;29;20540;-79
2022/05/30 00:47:43;;;;;;;7.53;2.80;;;6.00;99.90;;;;;;4828461;29;20038;-80
2022/05/30 00:50:52;;;;;;;6.75;3.00;;;6.10;99.90;;;;;;4836010;29;20042;-79
2022/05/30 00:53:34;;;;;;;5.95;2.88;;;5.90;99.90;;;;;;4826884;29;20525;-79
2022/05/30 00:56:18;;;;;;;4.47;2.50;;;5.90;99.90;;;;;;4843072;29;20046;-79
2022/05/30 00:59:12;;;;;;;6.47;2.58;;;6.00;99.90;;;;;;4840238;29;20047;-79
2022/05/30 01:01:47;;;;;;;6.50;2.30;;;5.90;99.90;;;;;;4818232;29;20029;-79
2022/05/30 01:07:28;;;;;;;5.47;2.55;;;5.80;99.90;;;;;;4835530;29;20502;-79
2022/05/30 01:10:09;;;;;;;6.20;2.78;;;5.80;99.90;;;;;;4824612;29;20049;-79
2022/05/30 01:12:52;;;;;;;5.63;3.05;;;5.80;99.90;;;;;;4843316;29;20137;-79
2022/05/30 01:15:40;;;;;;;6.10;2.65;;;5.80;99.90;;;;;;4856654;29;20476;-79
2022/05/30 01:18:29;;;;;;;7.47;3.05;;;5.80;99.90;;;;;;4841538;29;20454;-79
2022/05/30 01:21:55;;;;;;;5.38;2.83;;;5.90;99.90;;;;;;4821375;29;20051;-80
2022/05/30 01:24:37;;;;;;;6.03;2.90;;;5.90;99.90;;;;;;4792077;29;20446;-79
2022/05/30 01:28:06;;;;;;;7.15;3.22;;;5.90;99.90;;;;;;4794507;29;20137;-80
2022/05/30 01:30:38;;;;;;;4.45;2.55;;;5.90;99.90;;;;;;4826050;29;20037;-79
2022/05/30 01:33:14;;;;;;;6.20;3.55;;;5.90;99.90;;;;;;4829574;29;20129;-79
2022/05/30 01:35:49;;;;;;;5.60;2.75;;;5.90;99.90;;;;;;4831035;29;20044;-79
2022/05/30 01:38:20;;;;;;;5.43;3.03;;;5.80;99.90;;;;;;4823722;29;20109;-80
2022/05/30 01:41:03;;;;;;;5.25;3.00;;;5.70;99.90;;;;;;4845548;29;20111;-80
2022/05/30 01:43:34;;;;;;;5.90;2.72;;;5.60;99.90;;;;;;4818392;29;20077;-80
2022/05/30 01:46:48;;;;;;;4.57;2.70;;;5.60;99.90;;;;;;4856128;29;20438;-80
2022/05/30 01:49:31;;;;;;;4.88;2.60;;;5.60;99.90;;;;;;4848787;29;20516;-80
2022/05/30 01:52:06;;;;;;;6.45;2.70;;;5.40;99.90;;;;;;4828662;29;20054;-80
2022/05/30 01:54:32;;;;;;;5.25;2.83;;;5.30;99.90;;;;;;4828913;29;20033;-80
2022/05/30 01:57:05;;;;;;;4.10;2.78;;;5.30;99.90;;;;;;4823261;29;20516;-81
2022/05/30 01:59:41;;;;;;;6.53;3.30;;;5.30;99.90;;;;;;4846194;29;20053;-80
2022/05/30 02:02:14;;;;;;;6.20;2.80;;;5.20;99.90;;;;;;4832461;29;20103;-80
2022/05/30 02:05:12;;;;;;;5.22;2.95;;;5.10;99.90;;;;;;4824573;29;20089;-81
2022/05/30 02:07:45;;;;;;;5.47;3.22;;;5.10;99.90;;;;;;4831315;29;20057;-80
2022/05/30 02:10:22;;;;;;;5.63;3.20;;;5.00;99.90;;;;;;4830473;29;20041;-80
2022/05/30 02:12:52;;;;;;;6.22;3.35;;;5.00;99.90;;;;;;4822085;29;21497;-81
2022/05/30 02:17:00;;;;;;;7.78;3.83;;;5.00;99.90;;;;;;4831170;29;20109;-80
2022/05/30 02:18:28;;;;;;;5.93;3.55;;;5.00;99.90;;;;;;4855849;29;20049;-80
2022/05/30 02:21:12;;;;;;;5.57;3.40;;;5.00;99.90;;;;;;4853517;29;20067;-80
2022/05/30 02:23:48;;;;;;;7.47;3.95;;;5.00;99.90;;;;;;4832115;29;20438;-80
2022/05/30 02:26:23;;;;;;;7.38;3.88;;;5.00;99.90;;;;;;4829874;29;20056;-80
2022/05/30 02:28:55;;;;;;;7.25;3.45;;;5.10;99.90;;;;;;4837420;29;20076;-80
2022/05/30 02:31:27;;;;;;;6.28;3.60;;;5.10;99.90;;;;;;4836740;29;20038;-80
2022/05/30 02:36:57;;;;;;;5.78;3.38;;;5.10;99.90;;;;;;4854417;29;20049;-80
2022/05/30 02:39:39;;;;;;;5.60;3.03;;;5.10;99.90;;;;;;4834004;29;20041;-80
2022/05/30 02:42:12;;;;;;;6.13;3.22;;;5.20;99.90;;;;;;4833471;29;20046;-80
2022/05/30 02:44:57;;;;;;;6.07;3.38;;;5.20;99.90;;;;;;4841653;29;20045;-80
2022/05/30 02:50:33;;;;;;;8.05;3.95;;;5.30;99.90;;;;;;4849974;29;20045;-81
2022/05/30 02:53:23;;;;;;;5.50;3.17;;;5.30;99.90;;;;;;4842284;29;20132;-80
2022/05/30 02:56:01;;;;;;;5.90;3.50;;;5.40;99.90;;;;;;4838711;29;20125;-80
2022/05/30 02:58:35;;;;;;;4.55;3.55;;;5.30;99.90;;;;;;4829250;29;20046;-80
2022/05/30 03:01:25;;;;;;;5.22;3.30;;;5.30;99.90;;;;;;4855753;29;20041;-80
2022/05/30 03:06:57;;;;;;;6.97;3.47;;;5.30;99.90;;;;;;4850132;29;20140;-80
2022/05/30 03:09:40;;;;;;;7.95;3.40;;;5.20;99.90;;;;;;4850147;29;20041;-80
2022/05/30 03:12:16;;;;;;;5.55;3.33;;;5.20;99.90;;;;;;4835091;29;20445;-80
2022/05/30 03:14:56;;;;;;;4.80;3.00;;;5.20;99.90;;;;;;4833463;29;20060;-80
2022/05/30 03:20:46;;;;;;;4.55;3.00;;;5.20;99.90;;;;;;4850331;29;20077;-80
2022/05/30 03:23:15;;;;;;;4.55;3.13;;;5.20;99.90;;;;;;4839522;29;20068;-80
2022/05/30 03:25:49;;;;;;;5.82;2.92;;;5.20;99.90;;;;;;4826813;29;20052;-80
2022/05/30 03:28:31;;;;;;;7.47;2.95;;;5.10;99.90;;;;;;4817997;29;20409;-80
2022/05/30 03:31:11;;;;;;;5.65;2.80;;;5.10;99.90;;;;;;4834558;29;20061;-80
2022/05/30 03:34:06;;;;;;;5.55;3.13;;;5.00;99.90;;;;;;4833158;29;20049;-80
2022/05/30 03:36:38;;;;;;;4.25;2.97;;;5.10;99.90;;;;;;4842333;29;20046;-80
2022/05/30 03:39:15;;;;;;;6.65;2.83;;;5.00;99.90;;;;;;4847385;29;20298;-80
2022/05/30 03:41:47;;;;;;;4.18;3.00;;;5.00;99.90;;;;;;4846484;29;20041;-80
2022/05/30 03:44:39;;;;;;;6.93;3.45;;;4.90;99.90;;;;;;4852382;29;20117;-80
2022/05/30 03:47:18;;;;;;;5.38;3.13;;;4.90;99.90;;;;;;4827430;29;20058;-80
2022/05/30 03:50:12;;;;;;;5.78;3.30;;;4.80;99.90;;;;;;4831823;29;20049;-80
2022/05/30 03:52:50;;;;;;;4.55;2.80;;;4.80;99.90;;;;;;4819914;29;20096;-80
2022/05/30 03:55:30;;;;;;;6.10;2.83;;;4.80;99.90;;;;;;4829469;29;20050;-80
2022/05/30 03:58:15;;;;;;;4.50;2.60;;;4.80;99.90;;;;;;4818187;29;20046;-80
2022/05/30 04:00:52;;;;;;;4.57;2.85;;;4.70;99.90;;;;;;4790183;29;20051;-80
2022/05/30 04:03:22;;;;;;;4.93;3.20;;;4.70;99.90;;;;;;4790457;29;20058;-80
2022/05/30 04:06:15;;;;;;;6.90;2.97;;;4.70;99.90;;;;;;4843606;29;20042;-80
2022/05/30 04:09:09;;;;;;;4.78;2.65;;;4.70;99.90;;;;;;4832107;29;20132;-80
2022/05/30 04:12:08;;;;;;;4.50;3.00;;;4.70;99.90;;;;;;4846854;29;20056;-80
2022/05/30 04:15:19;;;;;;;7.75;3.00;;;4.60;99.90;;;;;;4839342;29;20049;-80
2022/05/30 04:18:30;;;;;;;;;;;;;;;;;;;;;
2022/05/30 04:21:06;;;;;;;6.40;3.28;;;4.70;99.90;;;;;;4838782;29;20508;-80
2022/05/30 04:24:02;;;;;;;;;;;;;;;;;;;;;
2022/05/30 04:26:37;;;;;;;;;;;4.70;99.90;;;;;;4847000;29;20046;-80
2022/05/30 04:29:26;;;;;;;5.18;2.97;;;4.70;99.90;;;;;;4823546;29;19920;-80
2022/05/30 04:32:16;;;;;;;6.95;3.40;;;4.70;99.90;;;;;;4845798;29;20152;-80
2022/05/30 04:35:08;;;;;;;5.97;2.92;;;4.70;99.90;;;;;;4826135;29;20428;-80
2022/05/30 04:37:55;;;;;;;;;;;;;;;;;;;;;
2022/05/30 04:40:38;;;;;;;6.13;3.05;;;4.80;99.90;;;;;;4861824;29;20466;-80
2022/05/30 04:43:14;;;;;;;4.82;2.97;;;4.80;99.90;;;;;;4823205;29;20416;-80
2022/05/30 04:45:52;;;;;;;5.10;3.17;;;4.80;99.90;;;;;;4820589;29;20501;-80
2022/05/30 04:48:54;;;;;;;3.65;2.70;;;4.80;99.90;;;;;;4807470;29;20128;-80
2022/05/30 04:51:36;;;;;;;6.18;3.20;;;4.80;99.90;;;;;;4839358;29;20046;-80
2022/05/30 04:54:14;;;;;;;6.40;3.22;;;4.90;99.90;;;;;;4830171;29;20045;-81
2022/05/30 04:56:49;;;;;;;4.93;3.30;;;4.80;99.90;;;;;;4833358;29;20121;-80
2022/05/30 04:59:44;;;;;;;11.30;4.05;;;5.00;99.90;;;;;;4846953;29;20128;-80
2022/05/30 05:02:37;;;;;;;6.68;3.55;;;5.30;99.90;;;;;;4860201;29;20532;-80
2022/05/30 05:05:21;;;;;;;7.30;4.05;;;6.10;99.90;;;;;;4835736;29;20037;-80
2022/05/30 05:08:30;;;;;;;7.30;3.92;;;6.90;99.90;;;;;;4835721;29;20041;-80
2022/05/30 05:11:58;;;;;;;5.30;3.72;;;7.90;99.90;;;;;;4848044;29;20048;-81
2022/05/30 05:14:27;;;;;;;3.88;2.70;;;8.80;99.90;;;;;;4759563;30;20148;-80
2022/05/30 05:32:29;;;;;;;3.25;1.38;;;12.20;99.90;;;;;;4862003;29;20035;-83
2022/05/30 05:36:14;;;;;;;2.97;1.45;;;12.70;99.90;;;;;;4827628;29;20045;-83
2022/05/30 06:10:25;;;;;;;;;;;;;;;;;;;;;
2022/05/30 06:14:29;;;;;;;;;;;;;;;;;;;;;
2022/05/30 06:26:31;;;;;;;2.22;1.00;;;11.90;99.90;;;;;;4882023;29;20056;-80
2022/05/30 06:30:22;;;;;;;3.72;1.00;;;12.10;99.90;;;;;;4858867;29;20076;-79
2022/05/30 06:33:32;;;;;;;2.15;0.60;;;12.30;99.90;;;;;;4837222;29;20046;-79
2022/05/30 06:52:09;;;;;;;1.45;0.43;;;13.10;99.90;;;;;;4668919;30;20116;-79
2022/05/30 07:06:11;;;;;;;;;;;;;;;;;;;;;
2022/05/30 07:09:32;;;;;;;;;;;;;;;;;;;;;
2022/05/30 07:16:54;;;;;;;2.15;0.47;;;13.30;99.90;;;;;;4613498;31;20060;-79
2022/05/30 07:28:12;;;;;;;;;;;;;;;;;;;;;
2022/05/30 07:31:29;;;;;;;;;;;;;;;;;;;;;
2022/05/30 07:34:54;;;;;;;3.83;0.57;;;14.10;99.90;;;;;;4859041;29;20058;-80
2022/05/30 07:38:41;;;;;;;1.33;0.40;;;14.40;99.90;;;;;;4837252;29;20055;-80
2022/05/30 08:04:54;;;;;;;1.23;0.40;;;16.70;99.90;;;;;;4748048;30;20124;-81
2022/05/30 08:35:10;;;;;;;;;;;;;;;;;;;;;
2022/05/30 09:07:51;;;;;;;;;;;;;;;;;;;;;
2022/05/30 09:19:02;;;;;;;0.93;0.38;;;14.90;99.90;;;;;;5117171;23;20053;-80
2022/05/30 09:29:29;;;;;;;2.13;0.82;;;14.00;99.90;;;;;;4830559;29;20053;-81
2022/05/30 09:32:58;;;;;;;1.48;0.50;;;14.00;99.90;;;;;;4816862;29;20064;-80
2022/05/30 09:35:53;;;;;;;0.65;0.43;;;14.10;99.90;;;;;;4821063;29;20105;-80
2022/05/30 09:46:19;;;;;;;0.50;0.43;;;15.50;99.90;;;;;;4781771;30;20048;-80
2022/05/30 09:49:29;;;;;;;0.50;0.40;;;16.20;99.90;;;;;;4781820;29;20081;-81
2022/05/30 09:53:22;;;;;;;1.65;0.47;;;17.00;99.90;;;;;;4807708;29;20076;-81
2022/05/30 09:56:31;;;;;;;1.58;0.60;;;17.30;99.90;;;;;;4797833;29;20065;-81
2022/05/30 10:04:16;;;;;;;0.65;0.30;;;17.80;99.90;;;;;;4804038;29;20135;-81
2022/05/30 10:11:02;;;;;;;1.25;0.30;;;17.60;99.90;;;;;;4838453;29;20109;-81
2022/05/30 10:14:33;;;;;;;1.15;0.40;;;17.30;99.90;;;;;;4831943;29;20105;-80
2022/05/30 10:17:33;;;;;;;0.40;0.30;;;17.00;99.90;;;;;;4947255;23;21212;-81
2022/05/30 10:32:16;;;;;;;;;;;;;;;;;;;;;
2022/05/30 10:43:14;;;;;;;1.33;0.55;;;16.90;99.90;;;;;;4818758;29;20054;-81
2022/05/30 10:50:15;;;;;;;0.68;0.40;;;17.40;99.90;;;;;;4830416;29;20057;-81
2022/05/30 11:01:41;;;;;;;;;;;;;;;;;;;;;
2022/05/30 11:05:22;;;;;;;;;;;;;;;;;;;;;
2022/05/30 11:08:46;;;;;;;1.30;0.50;;;18.00;99.90;;;;;;4818749;29;20062;-81
2022/05/30 11:31:31;;;;;;;1.45;0.43;;;17.90;99.90;;;;;;4700427;30;20181;-81
2022/05/30 11:38:58;;;;;;;0.93;0.40;;;17.50;98.60;;;;;;4722492;30;20539;-81
2022/05/30 11:47:33;;;;;;;;;;;;;;;;;;;;;
2022/05/30 11:50:26;;;;;;;0.63;0.20;;;17.60;98.50;;;;;;4679346;30;20046;-80
2022/05/30 12:00:25;;;;;;;1.67;0.40;;;17.30;99.00;;;;;;4993421;23;20056;-80
2022/05/30 12:07:25;;;;;;;0.95;0.50;;;17.10;98.30;;;;;;4827905;29;20046;-80
2022/05/30 12:10:34;;;;;;;1.38;0.47;;;17.10;99.20;;;;;;4798757;29;20448;-80
2022/05/30 12:17:36;;;;;;;0.90;0.40;;;17.30;99.90;;;;;;4865180;23;20057;-80
2022/05/30 12:24:35;;;;;;;0.93;0.40;;;17.80;99.90;;;;;;4864936;29;20053;-79
2022/05/30 12:36:05;;;;;;;;;;;;;;;;;;;;;
2022/05/30 12:39:44;;;;;;;;;;;;;;;;;;;;;
2022/05/30 12:46:54;;;;;;;0.20;0.10;;;20.50;87.80;;;;;;4788340;29;20051;-80
2022/05/30 12:50:18;;;;;;;;;;;;;;;;;;;;;
2022/05/30 12:53:30;;;;;;;;;;;;;;;;;;;;;
2022/05/30 13:00:48;;;;;;;0.25;0.20;;;20.80;82.50;;;;;;4702292;30;20053;-80
2022/05/30 13:04:32;;;;;;;;;;;;;;;;;;;;;
2022/05/30 13:07:32;;;;;;;0.30;0.10;;;20.10;79.90;;;;;;4792109;29;20574;-80
2022/05/30 13:10:59;;;;;;;0.40;0.20;;;19.70;82.80;;;;;;4807620;29;20055;-80
2022/05/30 13:14:31;;;;;;;1.35;0.20;;;19.40;81.00;;;;;;4760013;29;20559;-80
2022/05/30 13:21:19;;;;;;;0.95;0.40;;;18.50;81.70;;;;;;4865689;29;20056;-80
2022/05/30 13:24:14;;;;;;;0.55;0.30;;;18.30;85.70;;;;;;4867078;29;20041;-79
2022/05/30 13:27:30;;;;;;;0.80;0.20;;;18.20;88.60;;;;;;4837018;23;20276;-81
2022/05/30 13:30:39;;;;;;;1.38;0.20;;;18.00;87.90;;;;;;4850634;29;20072;-80
2022/05/30 13:33:49;;;;;;;;;;;;;;;;;;;;;
2022/05/30 13:37:10;;;;;;;1.65;0.30;;;18.10;85.50;;;;;;4847602;29;20132;-80
2022/05/30 13:40:08;;;;;;;1.35;0.30;;;18.10;84.90;;;;;;4827307;29;20049;-80
2022/05/30 13:43:21;;;;;;;;;;;;;;;;;;;;;
2022/05/30 13:49:56;;;;;;;0.30;0.30;;;18.60;90.60;;;;;;4818649;29;20094;-79
2022/05/30 13:54:01;;;;;;;;;;;;;;;;;;;;;
2022/05/30 14:01:01;;;;;;;0.52;0.30;;;18.90;91.40;;;;;;4788455;29;20047;-79
2022/05/30 14:04:02;;;;;;;;;;;;;;;;;;;;;
2022/05/30 14:07:06;;;;;;;1.23;0.40;;;18.90;90.30;;;;;;4795444;29;20096;-79
2022/05/30 14:10:31;;;;;;;;;;;;;;;;;;;;;
2022/05/30 14:13:40;;;;;;;0.30;0.30;;;18.60;86.00;;;;;;4672132;30;20057;-79
2022/05/30 14:24:59;;;;;;;0.70;0.40;;;18.50;86.40;;;;;;4867481;29;20053;-79
2022/05/30 14:28:26;;;;;;;1.07;0.40;;;18.50;87.90;;;;;;4854417;29;20547;-79
2022/05/30 14:35:18;;;;;;;;;;;18.50;89.40;;;;;;4826908;29;20042;-79
2022/05/30 14:38:47;;;;;;;1.83;0.50;;;18.50;88.80;;;;;;4840411;29;19920;-79
2022/05/30 14:45:13;;;;;;;1.80;0.40;;;18.20;83.80;;;;;;4780470;29;20139;-79
2022/05/30 14:49:02;;;;;;;1.23;0.40;;;18.10;88.60;;;;;;4834774;29;20176;-79
2022/05/30 14:52:28;;;;;;;2.05;0.60;;;18.20;88.70;;;;;;4756744;30;20044;-79
2022/05/30 14:55:43;;;;;;;1.00;0.50;;;18.20;90.70;;;;;;4756512;30;20043;-79
2022/05/30 14:58:40;;;;;;;;;;;18.10;87.70;;;;;;4722419;30;20064;-79
2022/05/30 15:01:38;;;;;;;0.93;0.50;;;17.90;85.30;;;;;;4737904;30;19921;-79
2022/05/30 15:04:56;;;;;;;0.98;0.40;;;17.80;89.20;;;;;;4759665;30;20075;-79
2022/05/30 15:08:19;;;;;;;0.68;0.38;;;17.70;90.40;;;;;;4848785;29;20517;-79
2022/05/30 15:14:59;;;;;;;0.50;0.40;;;17.50;90.90;;;;;;4847136;29;20509;-79
2022/05/30 15:18:01;;;;;;;1.85;0.55;;;17.20;91.80;;;;;;4812319;29;20041;-79
2022/05/30 15:21:15;;;;;;;;;;;;;;;;;;;;;
2022/05/30 15:24:47;;;;;;;2.47;0.70;;;16.80;95.20;;;;;;4813987;29;20049;-79
2022/05/30 15:31:23;;;;;;;;;;;;;;;;;;;;;
2022/05/30 15:34:09;;;;;;;1.17;0.50;;;16.10;97.90;;;;;;4817983;29;20064;-79
2022/05/30 15:36:58;;;;;;;2.10;0.65;;;15.90;98.90;;;;;;4833783;29;20128;-78
2022/05/30 15:39:56;;;;;;;1.67;0.63;;;15.80;99.90;;;;;;4831081;29;20057;-79
2022/05/30 15:42:52;;;;;;;;;;;;;;;;;;;;;
2022/05/30 15:48:57;;;;;;;1.58;0.70;;;15.40;99.90;;;;;;4841756;29;20402;-81
2022/05/30 15:51:56;;;;;;;;;;;;;;;;;;;;;
2022/05/30 15:58:20;;;;;;;3.40;1.20;;;15.30;99.90;;;;;;4751983;30;20052;-81
2022/05/30 16:01:14;;;;;;;0.77;0.60;;;15.30;99.90;;;;;;4735557;29;20591;-80
2022/05/30 16:03:41;;;;;;;1.50;0.70;;;15.30;99.90;;;;;;4848832;29;20044;-80
2022/05/30 16:06:36;;;;;;;0.70;0.60;;;15.30;99.90;;;;;;4832486;29;20048;-80
2022/05/30 16:09:29;;;;;;;1.50;0.70;;;15.30;99.90;;;;;;4839809;29;20046;-81
2022/05/30 16:12:11;;;;;;;1.38;0.50;;;15.30;99.90;;;;;;4821233;29;20045;-81
2022/05/30 16:19:07;;;;;;;0.40;0.40;;;15.20;98.10;;;;;;4877588;29;20103;-81
2022/05/30 16:21:43;;;;;;;1.80;0.57;;;15.00;98.40;;;;;;4842979;29;20068;-80
2022/05/30 16:24:44;;;;;;;0.57;0.43;;;14.90;98.00;;;;;;4830301;29;20049;-79
2022/05/30 16:31:18;;;;;;;1.42;0.50;;;14.70;99.90;;;;;;4850103;29;20061;-80
2022/05/30 16:34:20;;;;;;;0.85;0.50;;;14.70;99.90;;;;;;4822117;29;20045;-80
2022/05/30 16:37:09;;;;;;;0.60;0.40;;;14.70;99.90;;;;;;4827719;29;20045;-81
2022/05/30 16:40:05;;;;;;;2.42;0.50;;;14.60;99.90;;;;;;4796868;29;20061;-80
2022/05/30 16:43:53;;;;;;;1.33;0.60;;;14.60;99.70;;;;;;4759453;30;20051;-79
2022/05/30 16:47:37;;;;;;;2.63;0.68;;;14.50;98.20;;;;;;4711753;30;20057;-79
2022/05/30 16:54:02;;;;;;;0.75;0.60;;;14.50;98.80;;;;;;4694963;30;20091;-78
2022/05/30 16:56:46;;;;;;;2.10;0.63;;;14.60;99.90;;;;;;4721474;30;20208;-77
2022/05/30 16:59:26;;;;;;;1.35;0.63;;;14.60;99.80;;;;;;4823379;29;20497;-79
2022/05/30 17:02:20;;;;;;;1.98;0.57;;;14.60;98.80;;;;;;4821224;29;20038;-78
2022/05/30 17:05:02;;;;;;;1.25;0.70;;;14.50;99.20;;;;;;4815020;29;20133;-78
2022/05/30 17:08:03;;;;;;;2.28;0.85;;;14.50;99.90;;;;;;4781850;29;20602;-79
2022/05/30 17:10:44;;;;;;;2.03;0.80;;;14.40;99.90;;;;;;4828737;29;20141;-78
2022/05/30 17:13:32;;;;;;;1.20;0.60;;;14.40;99.90;;;;;;4796614;29;20052;-78
2022/05/30 17:16:32;;;;;;;1.67;0.65;;;14.30;99.90;;;;;;4824734;29;20046;-78
2022/05/30 17:19:08;;;;;;;1.25;0.60;;;14.20;99.90;;;;;;4829469;29;20049;-78
2022/05/30 17:21:46;;;;;;;0.50;0.40;;;14.10;99.90;;;;;;4818927;29;20390;-79
2022/05/30 17:24:24;;;;;;;1.38;0.63;;;14.00;99.70;;;;;;4821294;29;20052;-79
2022/05/30 17:30:02;;;;;;;1.48;0.65;;;13.70;99.90;;;;;;4826037;29;20514;-79
2022/05/30 17:32:35;;;;;;;3.30;1.35;;;13.60;99.90;;;;;;4787305;29;20035;-79
2022/05/30 17:35:09;;;;;;;1.05;0.70;;;13.50;99.90;;;;;;4814997;29;20046;-78
2022/05/30 17:37:41;;;;;;;1.75;0.80;;;13.50;99.90;;;;;;4815358;29;20112;-79
2022/05/30 17:40:08;;;;;;;1.80;0.88;;;13.40;99.90;;;;;;4834818;29;20058;-79
2022/05/30 17:42:36;;;;;;;1.48;0.70;;;13.40;99.90;;;;;;4824832;29;20033;-79
2022/05/30 17:45:20;;;;;;;2.53;0.80;;;13.40;99.90;;;;;;4820763;29;20570;-79
2022/05/30 17:47:57;;;;;;;2.03;1.00;;;13.30;99.90;;;;;;4807239;29;20077;-79
2022/05/30 17:50:33;;;;;;;3.95;0.98;;;13.30;99.90;;;;;;4827034;29;20098;-78
2022/05/30 17:53:06;;;;;;;2.47;1.00;;;13.20;99.90;;;;;;4827275;29;20044;-79
2022/05/30 17:55:49;;;;;;;2.35;1.00;;;13.20;99.90;;;;;;4833003;29;20046;-79
2022/05/30 17:58:26;;;;;;;1.92;0.90;;;13.10;99.90;;;;;;4822624;29;20605;-79
2022/05/30 18:00:57;;;;;;;1.55;1.00;;;13.10;99.90;;;;;;4818026;29;20053;-79
2022/05/30 18:03:26;;;;;;;1.77;0.88;;;13.10;99.90;;;;;;4849775;29;20037;-79
2022/05/30 18:05:57;;;;;;;2.53;1.00;;;13.10;99.90;;;;;;4809936;29;20062;-78
2022/05/30 18:08:54;;;;;;;;;;;13.00;99.90;;;;;;4847252;29;20129;-79
2022/05/30 18:11:39;;;;;;;3.15;1.20;;;13.00;99.90;;;;;;4823692;29;19926;-79
2022/05/30 18:14:43;;;;;;;4.05;1.30;;;12.90;99.90;;;;;;4829203;29;20125;-79
2022/05/30 18:17:43;;;;;;;1.80;0.93;;;12.80;99.90;;;;;;4824683;29;20098;-79
2022/05/30 18:20:21;;;;;;;2.45;0.93;;;12.70;99.90;;;;;;4834043;29;20041;-79
2022/05/30 18:23:24;;;;;;;1.38;0.82;;;12.60;99.90;;;;;;4819248;29;20102;-79
2022/05/30 18:25:53;;;;;;;2.60;1.00;;;12.60;99.90;;;;;;4828899;29;20424;-79
2022/05/30 18:28:35;;;;;;;2.25;1.10;;;12.60;99.90;;;;;;4832657;29;20105;-79
2022/05/30 18:31:46;;;;;;;3.15;1.38;;;12.60;99.90;;;;;;4827433;29;20045;-80
2022/05/30 18:34:58;;;;;;;1.60;1.15;;;12.50;99.90;;;;;;4788981;29;20101;-80
2022/05/30 18:37:54;;;;;;;2.53;1.30;;;12.50;99.90;;;;;;4835784;29;20124;-80
2022/05/30 18:41:08;;;;;;;3.67;1.65;;;12.40;99.90;;;;;;4821658;29;20515;-80
2022/05/30 18:44:03;;;;;;;2.00;1.27;;;12.30;99.90;;;;;;4818084;29;20069;-80
2022/05/30 18:47:01;;;;;;;2.35;1.42;;;12.30;99.90;;;;;;4832717;29;20299;-80
2022/05/30 18:50:01;;;;;;;1.58;1.13;;;12.30;99.90;;;;;;4833842;29;20038;-80
2022/05/30 18:53:00;;;;;;;3.67;1.50;;;12.10;99.90;;;;;;4798449;29;20039;-80
2022/05/30 18:56:17;;;;;;;;;;;;;;;;;;;;;
2022/05/30 18:59:04;;;;;;;5.13;1.80;;;12.10;99.90;;;;;;4818708;29;20086;-79
2022/05/30 19:01:35;;;;;;;1.92;1.25;;;12.00;99.90;;;;;;4830575;29;20042;-79
2022/05/30 19:04:05;;;;;;;3.10;1.60;;;11.90;99.90;;;;;;4828149;29;20073;-78
2022/05/30 19:06:35;;;;;;;2.95;1.60;;;11.80;99.90;;;;;;4830904;29;20489;-78
2022/05/30 19:09:03;;;;;;;2.08;1.50;;;11.80;99.90;;;;;;4820070;29;20042;-78
2022/05/30 19:12:26;;;;;;;3.47;1.63;;;11.70;99.90;;;;;;4823290;29;20073;-79
2022/05/30 19:18:30;;;;;;;4.75;1.70;;;11.60;99.90;;;;;;4852211;29;20045;-79
2022/05/30 19:20:58;;;;;;;3.67;2.65;;;11.50;99.90;;;;;;4814819;29;20394;-79
2022/05/30 19:23:29;;;;;;;3.72;1.80;;;11.50;99.90;;;;;;4816039;29;20466;-79
2022/05/30 19:26:02;;;;;;;2.70;1.88;;;11.50;99.90;;;;;;4823248;29;20080;-79
2022/05/30 19:28:29;;;;;;;2.40;1.70;;;11.40;99.90;;;;;;4814632;29;20030;-79
2022/05/30 19:31:02;;;;;;;2.63;1.35;;;11.40;99.90;;;;;;4823898;29;20045;-79
2022/05/30 19:33:31;;;;;;;4.47;1.65;;;11.30;99.90;;;;;;4823457;29;20030;-79
2022/05/30 19:36:00;;;;;;;1.85;1.02;;;11.20;99.90;;;;;;4835091;29;20065;-79
2022/05/30 19:38:27;;;;;;;2.15;1.30;;;11.20;99.90;;;;;;4833562;29;20132;-79
2022/05/30 19:41:02;;;;;;;4.35;0.93;;;11.10;99.90;;;;;;4818336;29;20038;-79
2022/05/30 19:43:39;;;;;;;3.25;1.40;;;11.10;99.90;;;;;;4810844;29;20050;-79
2022/05/30 19:46:21;;;;;;;3.42;1.40;;;11.00;99.90;;;;;;4811427;29;20387;-78
2022/05/30 19:48:55;;;;;;;;;;;11.00;99.90;;;;;;4837059;29;20133;-79
2022/05/30 19:51:22;;;;;;;2.22;1.10;;;10.90;99.90;;;;;;4832429;29;20398;-78
2022/05/30 19:53:47;;;;;;;2.42;1.42;;;10.90;99.90;;;;;;4802877;29;20049;-79
2022/05/30 19:56:17;;;;;;;1.65;1.23;;;10.90;99.90;;;;;;4815586;29;20058;-79
2022/05/30 19:58:51;;;;;;;1.23;1.10;;;10.80;99.90;;;;;;4835592;29;20509;-79
2022/05/30 20:01:20;;;;;;;1.67;1.08;;;10.70;99.90;;;;;;4807665;29;20041;-79
2022/05/30 20:03:52;;;;;;;1.30;1.20;;;10.60;99.90;;;;;;4821103;29;20497;-79
2022/05/30 20:06:18;;;;;;;1.98;1.00;;;10.60;99.90;;;;;;4808450;29;20104;-79
2022/05/30 20:08:52;;;;;;;1.83;1.08;;;10.50;99.90;;;;;;4816274;29;20037;-79
2022/05/30 20:11:31;;;;;;;3.60;1.25;;;10.40;99.90;;;;;;4833091;29;20454;-79
2022/05/30 20:14:05;;;;;;;1.20;0.80;;;10.40;99.90;;;;;;4821977;29;20049;-79
2022/05/30 20:16:41;;;;;;;2.20;1.30;;;10.40;99.90;;;;;;4810827;29;20054;-79
2022/05/30 20:19:26;;;;;;;2.20;1.20;;;10.40;99.90;;;;;;4809474;29;20062;-79
2022/05/30 20:21:58;;;;;;;1.40;1.13;;;10.30;99.90;;;;;;4818287;29;20087;-78
2022/05/30 20:24:25;;;;;;;1.30;1.20;;;10.30;99.90;;;;;;4807814;29;20053;-79
2022/05/30 20:27:11;;;;;;;2.53;1.20;;;10.30;99.90;;;;;;4816700;29;20132;-79
2022/05/30 20:29:44;;;;;;;3.03;1.70;;;10.20;99.90;;;;;;4812673;29;20497;-79
2022/05/30 20:32:20;;;;;;;1.55;1.38;;;10.00;99.90;;;;;;4818415;29;20038;-79
2022/05/30 20:35:12;;;;;;;2.67;1.50;;;10.00;99.90;;;;;;4827293;29;20051;-79
2022/05/30 20:37:52;;;;;;;1.20;1.10;;;9.90;99.90;;;;;;4813768;29;20046;-78
2022/05/30 20:43:39;;;;;;;1.20;1.10;;;9.90;99.90;;;;;;4846833;29;20045;-78
2022/05/30 20:46:32;;;;;;;1.30;1.20;;;9.80;99.90;;;;;;4814675;29;20282;-78
2022/05/30 20:49:04;;;;;;;2.38;1.20;;;9.70;99.90;;;;;;4817068;29;20054;-78
2022/05/30 20:51:37;;;;;;;1.70;1.30;;;9.60;99.90;;;;;;4803035;29;20526;-79
2022/05/30 20:54:31;;;;;;;1.38;1.20;;;9.60;99.90;;;;;;4813353;29;20490;-78
2022/05/30 20:57:05;;;;;;;3.80;1.52;;;9.50;99.90;;;;;;4818458;29;20567;-80
2022/05/30 20:59:54;;;;;;;1.63;1.40;;;9.40;99.90;;;;;;4833287;29;20065;-80
2022/05/30 21:02:28;;;;;;;1.63;1.35;;;9.40;99.90;;;;;;4806205;29;20096;-79
2022/05/30 21:05:03;;;;;;;3.78;1.70;;;9.30;99.90;;;;;;4810289;29;20053;-80
2022/05/30 21:07:35;;;;;;;4.32;1.90;;;9.30;99.90;;;;;;4821169;29;20054;-79
2022/05/30 21:10:08;;;;;;;1.75;1.40;;;9.30;99.90;;;;;;4826347;29;20046;-79
2022/05/30 21:12:43;;;;;;;2.20;1.50;;;9.20;99.90;;;;;;4821819;29;20034;-79
2022/05/30 21:15:15;;;;;;;1.85;1.55;;;9.30;99.90;;;;;;4822194;29;20045;-79
2022/05/30 21:18:05;;;;;;;2.65;1.75;;;9.30;99.90;;;;;;4828990;29;20053;-79
2022/05/30 21:20:40;;;;;;;2.88;1.80;;;9.30;99.90;;;;;;4824978;29;20070;-79
2022/05/30 21:23:13;;;;;;;5.15;2.25;;;9.30;99.90;;;;;;4828932;29;20394;-79
2022/05/30 21:25:42;;;;;;;2.38;1.60;;;9.40;99.90;;;;;;4818936;29;20042;-79
2022/05/30 21:28:18;;;;;;;1.88;1.60;;;9.40;99.90;;;;;;4820697;29;20137;-79
2022/05/30 21:30:52;;;;;;;1.83;1.52;;;9.40;99.90;;;;;;4826669;29;20045;-79
2022/05/30 21:33:50;;;;;;;1.70;1.60;;;9.40;99.90;;;;;;4822364;29;20033;-79
2022/05/30 21:36:26;;;;;;;1.92;1.48;;;9.40;99.90;;;;;;4820936;29;20404;-79
2022/05/30 21:38:58;;;;;;;1.95;1.83;;;9.40;99.90;;;;;;4814999;29;20413;-79
2022/05/30 21:41:25;;;;;;;1.92;1.60;;;9.30;99.90;;;;;;4844094;29;20043;-79
2022/05/30 21:44:08;;;;;;;3.35;1.60;;;9.40;99.90;;;;;;4832087;29;20080;-79
2022/05/30 21:46:45;;;;;;;1.60;1.50;;;9.40;99.90;;;;;;4819869;29;20068;-79
2022/05/30 21:49:20;;;;;;;3.75;1.77;;;9.40;99.90;;;;;;4824862;29;20076;-79
2022/05/30 21:51:50;;;;;;;1.67;1.58;;;9.30;99.90;;;;;;4842484;29;20301;-79
2022/05/30 21:54:22;;;;;;;2.38;1.77;;;9.30;99.90;;;;;;4839705;29;20037;-79
2022/05/30 21:57:49;;;;;;;2.55;1.67;;;9.20;99.90;;;;;;4826001;29;20063;-79